Meath Environmental Platform

Observations

Time Sensor AQI SAQ Temp °C Hum % Pres Pa CO μg/m³ H₂S μg/m³ NO μg/m³ NO₂ μg/m³ O₃ μg/m³ SO₂ μg/m³ CO₂e PPM VOC PPM PM1 μg/m³ PM2.5 μg/m³ PM4 μg/m³ PM10 μg/m³ TPS µm
Wednesday 12 August 2026
13:33 Trim Patrick St 2 34.5 35 69,513 0 3.75 0.31 12.24 124.46 19.55 4.57 10.54 11.59
13:32 Trim Market St 2 39.2 26 66,999 0 0 0 13.37 122.89 4.8 1.43 4.57 5.02
13:32 Trim Patrick St 2 34.6 34 69,527 0 6.39 0.31 14.36 113.4 19.46 5.43 10.6 11.66
13:31 Trim Market St 2 39.4 26 67,033 0 3.09 0 13.46 114.04 5.43 0.71 5.12 5.64
13:31 Trim Patrick St 2 34.6 34 69,545 0 3.15 0.31 12.37 123.54 20.23 4.57 11.38 12.52
13:30 Trim Market St 2 39.6 26 67,066 0 0 0 13.57 149.71 4.93 2.14 5.14 5.65
13:30 Trim Patrick St 2 34.7 34 69,537 0 0.57 0.3 12.37 134.85 19.62 3.71 10.6 11.66
13:29 Trim Market St 2 39.9 26 67,084 0 0 0 13.61 96.88 5.43 1.43 5.14 5.66
13:29 Trim Patrick St 2 34.8 34 69,557 0 1.96 0.29 12.33 129.22 20.56 3.71 9.8 10.78
13:28 Trim Patrick St 2 34.8 34 69,557 0 0 0.29 12.05 127.9 20.12 3.71 9.81 10.79
13:27 Trim Patrick St 2 34.9 34 69,553 0 0 0.28 12.32 135.78 19.85 3.71 9.82 10.8
13:26 Trim Patrick St 2 35 33 69,573 0 0 0.27 12.25 130.78 19.87 3.71 10.65 11.72
13:25 Trim Patrick St 2 35 33 69,573 0 0 0.27 9.15 87.24 20.3 4.57 10.67 11.74
13:24 Trim Market St 2 40.7 25 67,198 0 0 0 13.76 139.02 5.33 2.14 5.17 6.63
13:24 Trim Patrick St 2 35.1 34 69,569 0 2.85 0.25 12.36 139.73 20.65 3.71 10.64 11.7
13:22 Trim Market St 2 41.1 25 67,206 0 0 0 13.99 98.35 3.67 1.43 5.16 5.67
13:22 Trim Patrick St 2 35.3 33 69,602 0 0 0.25 12.49 101.69 20.46 3.71 9.9 10.89
13:21 Trim Market St 2 41.2 25 67,241 0 0 0 13.89 103.31 4.71 0.71 5.17 5.69
13:21 Trim Patrick St 2 35.3 33 69,608 0 0 0.25 12.1 132.81 20.17 3.71 10.71 11.78
13:20 Trim Market St 2 41.3 25 67,251 0 0 0 13.96 108.81 4.95 2.85 7.37 8.42